sensor_id;sensor_type;location;lat;lon;timestamp;P1;durP1;ratioP1;P2;durP2;ratioP2
8349;SDS011;60699;48.946;8.412;2023-08-01T00:00:01;7.13;;;3.30;;
8349;SDS011;60699;48.946;8.412;2023-08-01T00:02:28;4.50;;;3.23;;
8349;SDS011;60699;48.946;8.412;2023-08-01T00:04:56;5.00;;;3.03;;
8349;SDS011;60699;48.946;8.412;2023-08-01T00:07:23;4.00;;;3.10;;
8349;SDS011;60699;48.946;8.412;2023-08-01T00:09:51;4.80;;;3.63;;
8349;SDS011;60699;48.946;8.412;2023-08-01T00:12:18;4.37;;;3.37;;
8349;SDS011;60699;48.946;8.412;2023-08-01T00:14:45;3.20;;;2.90;;
8349;SDS011;60699;48.946;8.412;2023-08-01T00:17:12;5.30;;;3.60;;
8349;SDS011;60699;48.946;8.412;2023-08-01T00:19:39;4.33;;;3.93;;
8349;SDS011;60699;48.946;8.412;2023-08-01T00:22:08;4.93;;;3.10;;
8349;SDS011;60699;48.946;8.412;2023-08-01T00:24:35;3.50;;;3.07;;
8349;SDS011;60699;48.946;8.412;2023-08-01T00:27:02;5.07;;;2.67;;
8349;SDS011;60699;48.946;8.412;2023-08-01T00:29:29;4.17;;;3.20;;
8349;SDS011;60699;48.946;8.412;2023-08-01T00:31:57;3.67;;;2.83;;
8349;SDS011;60699;48.946;8.412;2023-08-01T00:34:24;3.17;;;2.87;;
8349;SDS011;60699;48.946;8.412;2023-08-01T00:36:52;3.90;;;3.00;;
8349;SDS011;60699;48.946;8.412;2023-08-01T00:39:20;3.47;;;3.17;;
8349;SDS011;60699;48.946;8.412;2023-08-01T00:41:47;8.43;;;2.77;;
8349;SDS011;60699;48.946;8.412;2023-08-01T00:44:14;4.60;;;3.00;;
8349;SDS011;60699;48.946;8.412;2023-08-01T00:46:41;3.63;;;3.33;;
8349;SDS011;60699;48.946;8.412;2023-08-01T00:49:08;7.33;;;3.13;;
8349;SDS011;60699;48.946;8.412;2023-08-01T00:51:35;3.33;;;2.67;;
8349;SDS011;60699;48.946;8.412;2023-08-01T00:54:02;6.10;;;2.83;;
8349;SDS011;60699;48.946;8.412;2023-08-01T00:56:31;3.20;;;2.80;;
8349;SDS011;60699;48.946;8.412;2023-08-01T00:58:58;4.30;;;3.00;;
8349;SDS011;60699;48.946;8.412;2023-08-01T01:01:25;3.63;;;2.67;;
8349;SDS011;60699;48.946;8.412;2023-08-01T01:03:53;3.43;;;3.13;;
8349;SDS011;60699;48.946;8.412;2023-08-01T01:06:20;4.80;;;2.80;;
8349;SDS011;60699;48.946;8.412;2023-08-01T01:08:49;5.67;;;3.33;;
8349;SDS011;60699;48.946;8.412;2023-08-01T01:11:16;4.03;;;2.97;;
8349;SDS011;60699;48.946;8.412;2023-08-01T01:13:44;5.47;;;3.87;;
8349;SDS011;60699;48.946;8.412;2023-08-01T01:16:11;3.40;;;3.10;;
8349;SDS011;60699;48.946;8.412;2023-08-01T01:18:38;3.33;;;3.00;;
8349;SDS011;60699;48.946;8.412;2023-08-01T01:21:07;3.23;;;2.90;;
8349;SDS011;60699;48.946;8.412;2023-08-01T01:23:34;5.70;;;3.13;;
8349;SDS011;60699;48.946;8.412;2023-08-01T01:26:02;6.73;;;3.47;;
8349;SDS011;60699;48.946;8.412;2023-08-01T01:28:29;5.40;;;3.10;;
8349;SDS011;60699;48.946;8.412;2023-08-01T01:30:56;6.37;;;4.00;;
8349;SDS011;60699;48.946;8.412;2023-08-01T01:33:23;4.43;;;3.23;;
8349;SDS011;60699;48.946;8.412;2023-08-01T01:35:51;4.17;;;3.53;;
8349;SDS011;60699;48.946;8.412;2023-08-01T01:38:19;2.90;;;2.37;;
8349;SDS011;60699;48.946;8.412;2023-08-01T01:40:46;4.70;;;3.93;;
8349;SDS011;60699;48.946;8.412;2023-08-01T01:43:13;7.30;;;3.27;;
8349;SDS011;60699;48.946;8.412;2023-08-01T01:45:40;4.73;;;3.13;;
8349;SDS011;60699;48.946;8.412;2023-08-01T01:48:07;4.30;;;3.70;;
8349;SDS011;60699;48.946;8.412;2023-08-01T01:50:34;3.67;;;2.77;;
8349;SDS011;60699;48.946;8.412;2023-08-01T01:53:01;7.07;;;4.10;;
8349;SDS011;60699;48.946;8.412;2023-08-01T01:55:30;4.37;;;3.10;;
8349;SDS011;60699;48.946;8.412;2023-08-01T01:57:57;4.40;;;3.10;;
8349;SDS011;60699;48.946;8.412;2023-08-01T02:00:24;4.37;;;3.43;;
8349;SDS011;60699;48.946;8.412;2023-08-01T02:02:51;6.60;;;3.70;;
8349;SDS011;60699;48.946;8.412;2023-08-01T02:05:18;8.03;;;3.20;;
8349;SDS011;60699;48.946;8.412;2023-08-01T02:07:45;4.10;;;3.60;;
8349;SDS011;60699;48.946;8.412;2023-08-01T02:10:12;3.90;;;2.67;;
8349;SDS011;60699;48.946;8.412;2023-08-01T02:12:40;5.20;;;4.07;;
8349;SDS011;60699;48.946;8.412;2023-08-01T02:15:07;5.93;;;3.50;;
8349;SDS011;60699;48.946;8.412;2023-08-01T02:17:34;4.83;;;2.73;;
8349;SDS011;60699;48.946;8.412;2023-08-01T02:20:01;4.07;;;3.00;;
8349;SDS011;60699;48.946;8.412;2023-08-01T02:22:28;4.67;;;3.40;;
8349;SDS011;60699;48.946;8.412;2023-08-01T02:24:55;2.90;;;2.60;;
8349;SDS011;60699;48.946;8.412;2023-08-01T02:27:23;3.77;;;3.23;;
8349;SDS011;60699;48.946;8.412;2023-08-01T02:29:51;4.93;;;3.40;;
8349;SDS011;60699;48.946;8.412;2023-08-01T02:32:18;3.73;;;3.33;;
8349;SDS011;60699;48.946;8.412;2023-08-01T02:34:45;4.10;;;2.73;;
8349;SDS011;60699;48.946;8.412;2023-08-01T02:37:13;5.90;;;3.40;;
8349;SDS011;60699;48.946;8.412;2023-08-01T02:39:40;3.60;;;3.30;;
8349;SDS011;60699;48.946;8.412;2023-08-01T02:42:07;4.13;;;2.90;;
8349;SDS011;60699;48.946;8.412;2023-08-01T02:44:34;4.10;;;3.70;;
8349;SDS011;60699;48.946;8.412;2023-08-01T02:47:02;5.67;;;4.47;;
8349;SDS011;60699;48.946;8.412;2023-08-01T02:49:31;3.50;;;3.20;;
8349;SDS011;60699;48.946;8.412;2023-08-01T02:51:58;5.50;;;4.50;;
8349;SDS011;60699;48.946;8.412;2023-08-01T02:54:25;5.97;;;3.30;;
8349;SDS011;60699;48.946;8.412;2023-08-01T02:56:52;5.10;;;3.90;;
8349;SDS011;60699;48.946;8.412;2023-08-01T02:59:19;7.23;;;3.97;;
8349;SDS011;60699;48.946;8.412;2023-08-01T03:01:46;5.90;;;4.40;;
8349;SDS011;60699;48.946;8.412;2023-08-01T03:04:14;4.00;;;3.40;;
8349;SDS011;60699;48.946;8.412;2023-08-01T03:06:41;4.13;;;2.83;;
8349;SDS011;60699;48.946;8.412;2023-08-01T03:09:08;3.73;;;2.67;;
8349;SDS011;60699;48.946;8.412;2023-08-01T03:11:35;4.10;;;3.63;;
8349;SDS011;60699;48.946;8.412;2023-08-01T03:14:03;4.07;;;2.90;;
8349;SDS011;60699;48.946;8.412;2023-08-01T03:16:30;9.40;;;4.57;;
8349;SDS011;60699;48.946;8.412;2023-08-01T03:18:57;5.27;;;3.50;;
8349;SDS011;60699;48.946;8.412;2023-08-01T03:21:30;3.30;;;3.00;;
8349;SDS011;60699;48.946;8.412;2023-08-01T03:23:57;5.37;;;3.30;;
8349;SDS011;60699;48.946;8.412;2023-08-01T03:26:24;5.20;;;3.43;;
8349;SDS011;60699;48.946;8.412;2023-08-01T03:28:53;4.80;;;3.03;;
8349;SDS011;60699;48.946;8.412;2023-08-01T03:31:20;4.60;;;3.17;;
8349;SDS011;60699;48.946;8.412;2023-08-01T03:33:47;3.30;;;2.87;;
8349;SDS011;60699;48.946;8.412;2023-08-01T03:36:14;3.90;;;2.93;;
8349;SDS011;60699;48.946;8.412;2023-08-01T03:38:43;3.43;;;3.07;;
8349;SDS011;60699;48.946;8.412;2023-08-01T03:41:10;8.20;;;3.10;;
8349;SDS011;60699;48.946;8.412;2023-08-01T03:43:37;3.60;;;3.27;;
8349;SDS011;60699;48.946;8.412;2023-08-01T03:46:04;5.43;;;3.33;;
8349;SDS011;60699;48.946;8.412;2023-08-01T03:48:31;3.87;;;3.10;;
8349;SDS011;60699;48.946;8.412;2023-08-01T03:50:58;3.80;;;2.97;;
8349;SDS011;60699;48.946;8.412;2023-08-01T03:53:25;3.90;;;3.10;;
8349;SDS011;60699;48.946;8.412;2023-08-01T03:55:54;3.70;;;2.73;;
8349;SDS011;60699;48.946;8.412;2023-08-01T03:58:21;3.30;;;2.97;;
8349;SDS011;60699;48.946;8.412;2023-08-01T04:00:48;3.20;;;2.90;;
8349;SDS011;60699;48.946;8.412;2023-08-01T04:03:15;3.60;;;2.53;;
8349;SDS011;60699;48.946;8.412;2023-08-01T04:05:42;3.53;;;2.87;;
8349;SDS011;60699;48.946;8.412;2023-08-01T04:08:09;5.03;;;3.40;;
8349;SDS011;60699;48.946;8.412;2023-08-01T04:10:36;4.10;;;3.00;;
8349;SDS011;60699;48.946;8.412;2023-08-01T04:13:04;3.80;;;3.17;;
8349;SDS011;60699;48.946;8.412;2023-08-01T04:15:31;5.43;;;3.33;;
8349;SDS011;60699;48.946;8.412;2023-08-01T04:17:58;2.80;;;2.60;;
8349;SDS011;60699;48.946;8.412;2023-08-01T04:20:25;4.60;;;2.90;;
8349;SDS011;60699;48.946;8.412;2023-08-01T04:22:53;6.07;;;3.40;;
8349;SDS011;60699;48.946;8.412;2023-08-01T04:25:20;8.47;;;3.60;;
8349;SDS011;60699;48.946;8.412;2023-08-01T04:27:49;3.43;;;2.70;;
8349;SDS011;60699;48.946;8.412;2023-08-01T04:30:17;3.80;;;3.43;;
8349;SDS011;60699;48.946;8.412;2023-08-01T04:32:44;4.80;;;3.40;;
8349;SDS011;60699;48.946;8.412;2023-08-01T04:35:11;6.30;;;3.90;;
8349;SDS011;60699;48.946;8.412;2023-08-01T04:37:38;5.47;;;3.33;;
8349;SDS011;60699;48.946;8.412;2023-08-01T04:40:06;2.60;;;2.40;;
8349;SDS011;60699;48.946;8.412;2023-08-01T04:42:33;3.80;;;3.30;;
8349;SDS011;60699;48.946;8.412;2023-08-01T04:45:00;7.50;;;4.50;;
8349;SDS011;60699;48.946;8.412;2023-08-01T04:47:28;4.30;;;3.70;;
8349;SDS011;60699;48.946;8.412;2023-08-01T04:49:55;3.10;;;2.80;;
8349;SDS011;60699;48.946;8.412;2023-08-01T04:52:23;3.13;;;2.80;;
8349;SDS011;60699;48.946;8.412;2023-08-01T04:54:50;5.00;;;3.07;;
8349;SDS011;60699;48.946;8.412;2023-08-01T04:57:17;4.73;;;3.23;;
8349;SDS011;60699;48.946;8.412;2023-08-01T04:59:44;5.00;;;3.30;;
8349;SDS011;60699;48.946;8.412;2023-08-01T05:02:11;3.43;;;3.03;;
8349;SDS011;60699;48.946;8.412;2023-08-01T05:04:39;5.20;;;3.47;;
8349;SDS011;60699;48.946;8.412;2023-08-01T05:07:06;4.20;;;3.53;;
8349;SDS011;60699;48.946;8.412;2023-08-01T05:09:33;3.83;;;2.93;;
8349;SDS011;60699;48.946;8.412;2023-08-01T05:12:00;5.97;;;2.83;;
8349;SDS011;60699;48.946;8.412;2023-08-01T05:14:27;3.17;;;2.93;;
8349;SDS011;60699;48.946;8.412;2023-08-01T05:16:54;3.43;;;2.60;;
8349;SDS011;60699;48.946;8.412;2023-08-01T05:19:21;3.30;;;3.00;;
8349;SDS011;60699;48.946;8.412;2023-08-01T05:21:50;5.00;;;3.60;;
8349;SDS011;60699;48.946;8.412;2023-08-01T05:24:17;6.23;;;3.80;;
8349;SDS011;60699;48.946;8.412;2023-08-01T05:26:44;6.20;;;3.97;;
8349;SDS011;60699;48.946;8.412;2023-08-01T05:29:11;4.60;;;3.40;;
8349;SDS011;60699;48.946;8.412;2023-08-01T05:31:38;7.30;;;3.43;;
8349;SDS011;60699;48.946;8.412;2023-08-01T05:34:05;4.93;;;3.87;;
8349;SDS011;60699;48.946;8.412;2023-08-01T05:36:32;3.67;;;2.97;;
8349;SDS011;60699;48.946;8.412;2023-08-01T05:39:00;6.80;;;3.90;;
8349;SDS011;60699;48.946;8.412;2023-08-01T05:41:27;9.57;;;3.13;;
8349;SDS011;60699;48.946;8.412;2023-08-01T05:43:54;5.10;;;3.77;;
8349;SDS011;60699;48.946;8.412;2023-08-01T05:46:21;5.73;;;3.63;;
8349;SDS011;60699;48.946;8.412;2023-08-01T05:48:48;4.73;;;3.23;;
8349;SDS011;60699;48.946;8.412;2023-08-01T05:51:15;5.67;;;4.53;;
8349;SDS011;60699;48.946;8.412;2023-08-01T05:53:42;4.33;;;3.00;;
8349;SDS011;60699;48.946;8.412;2023-08-01T05:56:11;4.13;;;3.37;;
8349;SDS011;60699;48.946;8.412;2023-08-01T05:58:38;5.13;;;3.93;;
8349;SDS011;60699;48.946;8.412;2023-08-01T06:01:05;5.90;;;3.40;;
8349;SDS011;60699;48.946;8.412;2023-08-01T06:03:34;4.83;;;3.53;;
8349;SDS011;60699;48.946;8.412;2023-08-01T06:06:01;4.30;;;3.27;;
8349;SDS011;60699;48.946;8.412;2023-08-01T06:08:28;4.37;;;3.13;;
8349;SDS011;60699;48.946;8.412;2023-08-01T06:10:55;5.23;;;3.63;;
8349;SDS011;60699;48.946;8.412;2023-08-01T06:13:23;5.10;;;3.67;;
8349;SDS011;60699;48.946;8.412;2023-08-01T06:15:50;5.33;;;3.40;;
8349;SDS011;60699;48.946;8.412;2023-08-01T06:18:17;5.27;;;4.00;;
8349;SDS011;60699;48.946;8.412;2023-08-01T06:20:44;4.33;;;3.50;;
8349;SDS011;60699;48.946;8.412;2023-08-01T06:23:11;5.63;;;3.33;;
8349;SDS011;60699;48.946;8.412;2023-08-01T06:25:38;4.73;;;4.30;;
8349;SDS011;60699;48.946;8.412;2023-08-01T06:28:05;5.83;;;3.30;;
8349;SDS011;60699;48.946;8.412;2023-08-01T06:30:33;6.73;;;4.30;;
8349;SDS011;60699;48.946;8.412;2023-08-01T06:33:00;5.07;;;3.90;;
8349;SDS011;60699;48.946;8.412;2023-08-01T06:35:27;5.73;;;3.53;;
8349;SDS011;60699;48.946;8.412;2023-08-01T06:37:54;5.47;;;3.53;;
8349;SDS011;60699;48.946;8.412;2023-08-01T06:40:21;5.33;;;4.40;;
8349;SDS011;60699;48.946;8.412;2023-08-01T06:42:48;5.00;;;3.87;;
8349;SDS011;60699;48.946;8.412;2023-08-01T06:45:16;6.20;;;4.00;;
8349;SDS011;60699;48.946;8.412;2023-08-01T06:47:44;3.47;;;3.17;;
8349;SDS011;60699;48.946;8.412;2023-08-01T06:50:11;5.17;;;3.83;;
8349;SDS011;60699;48.946;8.412;2023-08-01T06:52:38;5.17;;;3.73;;
8349;SDS011;60699;48.946;8.412;2023-08-01T06:55:05;5.57;;;3.57;;
8349;SDS011;60699;48.946;8.412;2023-08-01T06:57:33;4.70;;;3.40;;
8349;SDS011;60699;48.946;8.412;2023-08-01T07:00:00;4.90;;;3.90;;
8349;SDS011;60699;48.946;8.412;2023-08-01T07:02:27;4.93;;;4.13;;
8349;SDS011;60699;48.946;8.412;2023-08-01T07:04:55;6.73;;;4.20;;
8349;SDS011;60699;48.946;8.412;2023-08-01T07:07:22;4.10;;;3.70;;
8349;SDS011;60699;48.946;8.412;2023-08-01T07:09:49;8.30;;;3.80;;
8349;SDS011;60699;48.946;8.412;2023-08-01T07:12:17;4.43;;;3.37;;
8349;SDS011;60699;48.946;8.412;2023-08-01T07:14:44;9.53;;;4.70;;
8349;SDS011;60699;48.946;8.412;2023-08-01T07:17:11;5.30;;;4.30;;
8349;SDS011;60699;48.946;8.412;2023-08-01T07:19:38;4.00;;;3.70;;
8349;SDS011;60699;48.946;8.412;2023-08-01T07:22:06;6.77;;;3.33;;
8349;SDS011;60699;48.946;8.412;2023-08-01T07:24:33;7.00;;;3.60;;
8349;SDS011;60699;48.946;8.412;2023-08-01T07:27:00;5.17;;;3.07;;
8349;SDS011;60699;48.946;8.412;2023-08-01T07:29:27;3.00;;;2.67;;
8349;SDS011;60699;48.946;8.412;2023-08-01T07:31:54;5.07;;;4.00;;
8349;SDS011;60699;48.946;8.412;2023-08-01T07:34:21;5.40;;;3.30;;
8349;SDS011;60699;48.946;8.412;2023-08-01T07:36:48;4.10;;;2.20;;
8349;SDS011;60699;48.946;8.412;2023-08-01T07:39:16;5.80;;;3.47;;
8349;SDS011;60699;48.946;8.412;2023-08-01T07:41:43;3.47;;;2.67;;
8349;SDS011;60699;48.946;8.412;2023-08-01T07:44:11;5.00;;;2.60;;
8349;SDS011;60699;48.946;8.412;2023-08-01T07:46:38;3.43;;;2.50;;
8349;SDS011;60699;48.946;8.412;2023-08-01T07:49:05;3.23;;;2.40;;
8349;SDS011;60699;48.946;8.412;2023-08-01T07:51:32;2.67;;;2.47;;
8349;SDS011;60699;48.946;8.412;2023-08-01T07:53:59;3.07;;;2.60;;
8349;SDS011;60699;48.946;8.412;2023-08-01T07:56:27;5.93;;;3.50;;
8349;SDS011;60699;48.946;8.412;2023-08-01T07:58:54;2.60;;;2.03;;
8349;SDS011;60699;48.946;8.412;2023-08-01T08:01:21;4.10;;;2.40;;
8349;SDS011;60699;48.946;8.412;2023-08-01T08:03:49;2.57;;;2.37;;
8349;SDS011;60699;48.946;8.412;2023-08-01T08:06:15;2.47;;;2.00;;
8349;SDS011;60699;48.946;8.412;2023-08-01T08:08:43;2.40;;;1.73;;
8349;SDS011;60699;48.946;8.412;2023-08-01T08:11:10;2.23;;;2.00;;
8349;SDS011;60699;48.946;8.412;2023-08-01T08:13:38;2.80;;;2.60;;
8349;SDS011;60699;48.946;8.412;2023-08-01T08:16:05;1.87;;;1.60;;
8349;SDS011;60699;48.946;8.412;2023-08-01T08:18:32;3.00;;;1.83;;
8349;SDS011;60699;48.946;8.412;2023-08-01T08:20:59;2.10;;;1.83;;
8349;SDS011;60699;48.946;8.412;2023-08-01T08:23:26;5.10;;;2.20;;
8349;SDS011;60699;48.946;8.412;2023-08-01T08:25:53;1.90;;;1.70;;
8349;SDS011;60699;48.946;8.412;2023-08-01T08:28:27;5.03;;;2.20;;
8349;SDS011;60699;48.946;8.412;2023-08-01T08:30:55;2.40;;;2.00;;
8349;SDS011;60699;48.946;8.412;2023-08-01T08:33:22;3.27;;;2.27;;
8349;SDS011;60699;48.946;8.412;2023-08-01T08:35:49;2.30;;;2.10;;
8349;SDS011;60699;48.946;8.412;2023-08-01T08:38:17;2.13;;;1.93;;
8349;SDS011;60699;48.946;8.412;2023-08-01T08:40:48;3.23;;;1.67;;
8349;SDS011;60699;48.946;8.412;2023-08-01T08:43:15;2.43;;;1.93;;
8349;SDS011;60699;48.946;8.412;2023-08-01T08:45:43;4.70;;;3.00;;
8349;SDS011;60699;48.946;8.412;2023-08-01T08:48:12;4.97;;;2.73;;
8349;SDS011;60699;48.946;8.412;2023-08-01T08:50:39;3.77;;;2.50;;
8349;SDS011;60699;48.946;8.412;2023-08-01T08:53:07;1.93;;;1.83;;
8349;SDS011;60699;48.946;8.412;2023-08-01T08:55:38;1.40;;;1.30;;
8349;SDS011;60699;48.946;8.412;2023-08-01T08:58:05;1.20;;;1.10;;
8349;SDS011;60699;48.946;8.412;2023-08-01T09:00:32;3.27;;;1.47;;
8349;SDS011;60699;48.946;8.412;2023-08-01T09:02:59;1.83;;;1.27;;
8349;SDS011;60699;48.946;8.412;2023-08-01T09:05:29;1.50;;;1.40;;
8349;SDS011;60699;48.946;8.412;2023-08-01T09:07:59;1.50;;;1.40;;
8349;SDS011;60699;48.946;8.412;2023-08-01T09:10:28;1.70;;;1.60;;
8349;SDS011;60699;48.946;8.412;2023-08-01T09:12:55;2.10;;;1.53;;
8349;SDS011;60699;48.946;8.412;2023-08-01T09:15:22;1.80;;;1.67;;
8349;SDS011;60699;48.946;8.412;2023-08-01T09:17:50;1.80;;;1.53;;
8349;SDS011;60699;48.946;8.412;2023-08-01T09:20:17;2.40;;;1.37;;
8349;SDS011;60699;48.946;8.412;2023-08-01T09:22:46;1.47;;;1.37;;
8349;SDS011;60699;48.946;8.412;2023-08-01T09:25:13;2.33;;;1.40;;
8349;SDS011;60699;48.946;8.412;2023-08-01T09:27:40;2.30;;;1.50;;
8349;SDS011;60699;48.946;8.412;2023-08-01T09:30:09;1.50;;;1.40;;
8349;SDS011;60699;48.946;8.412;2023-08-01T09:32:36;1.50;;;1.40;;
8349;SDS011;60699;48.946;8.412;2023-08-01T09:35:04;1.90;;;1.80;;
8349;SDS011;60699;48.946;8.412;2023-08-01T09:37:40;2.67;;;2.00;;
8349;SDS011;60699;48.946;8.412;2023-08-01T09:40:09;1.87;;;1.70;;
8349;SDS011;60699;48.946;8.412;2023-08-01T09:42:39;3.10;;;1.87;;
8349;SDS011;60699;48.946;8.412;2023-08-01T09:45:11;2.10;;;1.90;;
8349;SDS011;60699;48.946;8.412;2023-08-01T09:47:38;2.43;;;1.93;;
8349;SDS011;60699;48.946;8.412;2023-08-01T09:50:05;2.40;;;1.73;;
8349;SDS011;60699;48.946;8.412;2023-08-01T09:52:32;2.20;;;2.00;;
8349;SDS011;60699;48.946;8.412;2023-08-01T09:55:00;1.47;;;1.37;;
8349;SDS011;60699;48.946;8.412;2023-08-01T09:57:29;1.60;;;1.40;;
8349;SDS011;60699;48.946;8.412;2023-08-01T09:59:56;1.63;;;1.53;;
8349;SDS011;60699;48.946;8.412;2023-08-01T10:02:24;3.30;;;1.63;;
8349;SDS011;60699;48.946;8.412;2023-08-01T10:04:52;1.37;;;1.20;;
8349;SDS011;60699;48.946;8.412;2023-08-01T10:07:20;1.63;;;1.30;;
8349;SDS011;60699;48.946;8.412;2023-08-01T10:09:50;2.60;;;1.43;;
8349;SDS011;60699;48.946;8.412;2023-08-01T10:12:17;3.60;;;1.33;;
8349;SDS011;60699;48.946;8.412;2023-08-01T10:14:45;1.50;;;1.40;;
8349;SDS011;60699;48.946;8.412;2023-08-01T10:17:13;2.20;;;1.40;;
8349;SDS011;60699;48.946;8.412;2023-08-01T10:19:40;1.90;;;1.77;;
8349;SDS011;60699;48.946;8.412;2023-08-01T10:22:08;2.13;;;1.60;;
8349;SDS011;60699;48.946;8.412;2023-08-01T10:24:36;3.23;;;1.40;;
8349;SDS011;60699;48.946;8.412;2023-08-01T10:27:13;1.30;;;1.20;;
8349;SDS011;60699;48.946;8.412;2023-08-01T10:29:40;1.53;;;1.43;;
8349;SDS011;60699;48.946;8.412;2023-08-01T10:32:09;1.33;;;1.23;;
8349;SDS011;60699;48.946;8.412;2023-08-01T10:34:37;1.93;;;1.30;;
8349;SDS011;60699;48.946;8.412;2023-08-01T10:37:04;5.50;;;1.40;;
8349;SDS011;60699;48.946;8.412;2023-08-01T10:39:31;1.47;;;1.37;;
8349;SDS011;60699;48.946;8.412;2023-08-01T10:41:58;2.40;;;1.30;;
8349;SDS011;60699;48.946;8.412;2023-08-01T10:44:26;1.60;;;1.50;;
8349;SDS011;60699;48.946;8.412;2023-08-01T10:46:56;5.60;;;1.40;;
8349;SDS011;60699;48.946;8.412;2023-08-01T10:49:34;1.97;;;1.87;;
8349;SDS011;60699;48.946;8.412;2023-08-01T10:52:02;1.27;;;1.17;;
8349;SDS011;60699;48.946;8.412;2023-08-01T10:54:29;2.00;;;1.80;;
8349;SDS011;60699;48.946;8.412;2023-08-01T10:56:59;1.30;;;1.20;;
8349;SDS011;60699;48.946;8.412;2023-08-01T10:59:27;2.00;;;1.80;;
8349;SDS011;60699;48.946;8.412;2023-08-01T11:01:57;1.90;;;1.33;;
8349;SDS011;60699;48.946;8.412;2023-08-01T11:04:25;2.03;;;1.63;;
8349;SDS011;60699;48.946;8.412;2023-08-01T11:06:54;3.30;;;1.90;;
8349;SDS011;60699;48.946;8.412;2023-08-01T11:09:22;1.60;;;1.50;;
8349;SDS011;60699;48.946;8.412;2023-08-01T11:11:50;1.80;;;1.70;;
8349;SDS011;60699;48.946;8.412;2023-08-01T11:14:18;2.80;;;1.30;;
8349;SDS011;60699;48.946;8.412;2023-08-01T11:16:46;2.97;;;2.50;;
8349;SDS011;60699;48.946;8.412;2023-08-01T11:19:20;2.10;;;1.60;;
8349;SDS011;60699;48.946;8.412;2023-08-01T11:21:47;1.77;;;1.67;;
8349;SDS011;60699;48.946;8.412;2023-08-01T11:24:16;2.40;;;1.57;;
8349;SDS011;60699;48.946;8.412;2023-08-01T11:26:43;1.80;;;1.70;;
8349;SDS011;60699;48.946;8.412;2023-08-01T11:29:11;2.13;;;2.00;;
8349;SDS011;60699;48.946;8.412;2023-08-01T11:31:38;1.50;;;1.40;;
8349;SDS011;60699;48.946;8.412;2023-08-01T11:34:06;2.87;;;1.63;;
8349;SDS011;60699;48.946;8.412;2023-08-01T11:36:34;3.40;;;1.47;;
8349;SDS011;60699;48.946;8.412;2023-08-01T11:39:02;2.60;;;1.60;;
8349;SDS011;60699;48.946;8.412;2023-08-01T11:41:31;2.10;;;1.40;;
8349;SDS011;60699;48.946;8.412;2023-08-01T11:44:01;2.07;;;1.40;;
8349;SDS011;60699;48.946;8.412;2023-08-01T11:46:33;1.60;;;1.50;;
8349;SDS011;60699;48.946;8.412;2023-08-01T11:49:00;1.93;;;1.70;;
8349;SDS011;60699;48.946;8.412;2023-08-01T11:51:28;2.70;;;1.80;;
8349;SDS011;60699;48.946;8.412;2023-08-01T11:53:58;1.87;;;1.50;;
8349;SDS011;60699;48.946;8.412;2023-08-01T11:56:25;2.40;;;1.93;;
8349;SDS011;60699;48.946;8.412;2023-08-01T11:58:54;1.87;;;1.67;;
8349;SDS011;60699;48.946;8.412;2023-08-01T12:01:21;2.40;;;1.53;;
8349;SDS011;60699;48.946;8.412;2023-08-01T12:03:49;3.27;;;1.50;;
8349;SDS011;60699;48.946;8.412;2023-08-01T12:06:17;2.00;;;1.80;;
8349;SDS011;60699;48.946;8.412;2023-08-01T12:08:45;2.00;;;1.50;;
8349;SDS011;60699;48.946;8.412;2023-08-01T12:11:19;4.40;;;1.50;;
8349;SDS011;60699;48.946;8.412;2023-08-01T12:13:46;1.83;;;1.73;;
8349;SDS011;60699;48.946;8.412;2023-08-01T12:16:15;1.77;;;1.40;;
8349;SDS011;60699;48.946;8.412;2023-08-01T12:18:45;1.60;;;1.50;;
8349;SDS011;60699;48.946;8.412;2023-08-01T12:21:13;5.30;;;2.10;;
8349;SDS011;60699;48.946;8.412;2023-08-01T12:23:40;1.73;;;1.63;;
8349;SDS011;60699;48.946;8.412;2023-08-01T12:26:07;1.30;;;1.20;;
8349;SDS011;60699;48.946;8.412;2023-08-01T12:28:34;2.07;;;1.60;;
8349;SDS011;60699;48.946;8.412;2023-08-01T12:31:01;2.23;;;1.90;;
8349;SDS011;60699;48.946;8.412;2023-08-01T12:33:30;3.23;;;1.40;;
8349;SDS011;60699;48.946;8.412;2023-08-01T12:35:58;2.47;;;1.40;;
8349;SDS011;60699;48.946;8.412;2023-08-01T12:38:25;3.30;;;1.90;;
8349;SDS011;60699;48.946;8.412;2023-08-01T12:40:52;1.77;;;1.67;;
8349;SDS011;60699;48.946;8.412;2023-08-01T12:43:19;4.20;;;1.87;;
8349;SDS011;60699;48.946;8.412;2023-08-01T12:45:46;3.27;;;1.70;;
8349;SDS011;60699;48.946;8.412;2023-08-01T12:48:13;2.10;;;1.50;;
8349;SDS011;60699;48.946;8.412;2023-08-01T12:50:44;1.73;;;1.53;;
8349;SDS011;60699;48.946;8.412;2023-08-01T12:53:11;1.63;;;1.53;;
8349;SDS011;60699;48.946;8.412;2023-08-01T12:55:38;1.90;;;1.40;;
8349;SDS011;60699;48.946;8.412;2023-08-01T12:58:06;1.73;;;1.63;;
8349;SDS011;60699;48.946;8.412;2023-08-01T13:00:33;2.07;;;1.77;;
8349;SDS011;60699;48.946;8.412;2023-08-01T13:03:00;1.40;;;1.30;;
8349;SDS011;60699;48.946;8.412;2023-08-01T13:05:27;1.73;;;1.50;;
8349;SDS011;60699;48.946;8.412;2023-08-01T13:07:55;1.93;;;1.73;;
8349;SDS011;60699;48.946;8.412;2023-08-01T13:10:22;2.10;;;1.50;;
8349;SDS011;60699;48.946;8.412;2023-08-01T13:12:49;4.67;;;1.53;;
8349;SDS011;60699;48.946;8.412;2023-08-01T13:15:16;1.40;;;1.30;;
8349;SDS011;60699;48.946;8.412;2023-08-01T13:17:43;1.43;;;1.33;;
8349;SDS011;60699;48.946;8.412;2023-08-01T13:20:11;1.60;;;1.50;;
8349;SDS011;60699;48.946;8.412;2023-08-01T13:22:38;2.00;;;1.80;;
8349;SDS011;60699;48.946;8.412;2023-08-01T13:25:06;2.03;;;1.43;;
8349;SDS011;60699;48.946;8.412;2023-08-01T13:27:34;1.67;;;1.57;;
8349;SDS011;60699;48.946;8.412;2023-08-01T13:30:01;1.77;;;1.60;;
8349;SDS011;60699;48.946;8.412;2023-08-01T13:32:28;3.70;;;1.83;;
8349;SDS011;60699;48.946;8.412;2023-08-01T13:34:55;2.23;;;1.60;;
8349;SDS011;60699;48.946;8.412;2023-08-01T13:37:22;1.83;;;1.67;;
8349;SDS011;60699;48.946;8.412;2023-08-01T13:39:49;1.93;;;1.70;;
8349;SDS011;60699;48.946;8.412;2023-08-01T13:42:18;1.47;;;1.37;;
8349;SDS011;60699;48.946;8.412;2023-08-01T13:44:45;2.20;;;1.60;;
8349;SDS011;60699;48.946;8.412;2023-08-01T13:47:12;1.77;;;1.50;;
8349;SDS011;60699;48.946;8.412;2023-08-01T13:49:39;2.30;;;1.60;;
8349;SDS011;60699;48.946;8.412;2023-08-01T13:52:06;1.63;;;1.47;;
8349;SDS011;60699;48.946;8.412;2023-08-01T13:54:33;1.73;;;1.63;;
8349;SDS011;60699;48.946;8.412;2023-08-01T13:57:00;1.63;;;1.47;;
8349;SDS011;60699;48.946;8.412;2023-08-01T13:59:28;2.80;;;1.90;;
8349;SDS011;60699;48.946;8.412;2023-08-01T14:01:56;2.10;;;1.30;;
8349;SDS011;60699;48.946;8.412;2023-08-01T14:04:23;1.60;;;1.50;;
8349;SDS011;60699;48.946;8.412;2023-08-01T14:06:50;2.43;;;1.50;;
8349;SDS011;60699;48.946;8.412;2023-08-01T14:09:17;2.07;;;1.30;;
8349;SDS011;60699;48.946;8.412;2023-08-01T14:11:44;1.63;;;1.40;;
8349;SDS011;60699;48.946;8.412;2023-08-01T14:14:11;2.47;;;1.53;;
8349;SDS011;60699;48.946;8.412;2023-08-01T14:16:39;4.97;;;1.63;;
8349;SDS011;60699;48.946;8.412;2023-08-01T14:19:06;2.80;;;1.77;;
8349;SDS011;60699;48.946;8.412;2023-08-01T14:21:33;1.47;;;1.13;;
8349;SDS011;60699;48.946;8.412;2023-08-01T14:24:00;1.77;;;1.60;;
8349;SDS011;60699;48.946;8.412;2023-08-01T14:26:27;1.30;;;1.20;;
8349;SDS011;60699;48.946;8.412;2023-08-01T14:28:54;1.53;;;1.43;;
8349;SDS011;60699;48.946;8.412;2023-08-01T14:31:21;1.40;;;1.30;;
8349;SDS011;60699;48.946;8.412;2023-08-01T14:33:49;4.03;;;1.87;;
8349;SDS011;60699;48.946;8.412;2023-08-01T14:36:16;1.60;;;1.50;;
8349;SDS011;60699;48.946;8.412;2023-08-01T14:38:43;1.60;;;1.50;;
8349;SDS011;60699;48.946;8.412;2023-08-01T14:41:14;1.60;;;1.50;;
8349;SDS011;60699;48.946;8.412;2023-08-01T14:43:41;1.80;;;1.50;;
8349;SDS011;60699;48.946;8.412;2023-08-01T14:46:09;2.43;;;1.80;;
8349;SDS011;60699;48.946;8.412;2023-08-01T14:48:36;3.37;;;2.00;;
8349;SDS011;60699;48.946;8.412;2023-08-01T14:51:06;1.87;;;1.60;;
8349;SDS011;60699;48.946;8.412;2023-08-01T14:53:33;3.17;;;2.27;;
8349;SDS011;60699;48.946;8.412;2023-08-01T14:56:00;1.50;;;1.40;;
8349;SDS011;60699;48.946;8.412;2023-08-01T14:58:28;1.80;;;1.40;;
8349;SDS011;60699;48.946;8.412;2023-08-01T15:00:55;1.70;;;1.50;;